• Join FlightAware (Why Join?)
  • Login
  • US Flag 
10:12AM EDT


 

Airport Tracker/Info


-or-


 

Live Flight TrackerFlight Track Log ✈ AVN10 ✈ 10-Nov-2013 ✈ NVVV / VLI - YSSY / SYD

Flight Track Log - Related Links

Times and Time Zones

All times are in EST time to prevent confusion due to time zone crossing. See the AVN10 flight status page for this flight to view local times or setup timezone preferences in your user account.

Time Position Orientation Groundspeed Altitude Reporting Facility
EST Latitude Longitude Course Direction KTS MPH feet Rate Location/Type
03:07PM -18.0129 168.1600 206° Southwest  Level FlightAware Approximate
03:08PM -18.1175 168.1066 206° Southwest  Level FlightAware Approximate
03:09PM -18.2220 168.0531 206° Southwest  Level FlightAware Approximate
03:10PM -18.3264 167.9996 206° Southwest  Level FlightAware Approximate
03:11PM -18.4309 167.9460 206° Southwest  Level FlightAware Approximate
03:12PM -18.5190 167.8662 204° Southwest  Level Estimated
03:13PM -18.6254 167.8169 204° Southwest  Level FlightAware Approximate
03:14PM -18.7317 167.7675 204° Southwest  Level FlightAware Approximate
03:15PM -18.8381 167.7180 204° Southwest  Level FlightAware Approximate
03:16PM -18.9444 167.6685 204° Southwest  Level FlightAware Approximate
03:17PM -19.0507 167.6190 204° Southwest  Level FlightAware Approximate
03:18PM -19.1570 167.5694 204° Southwest  Level FlightAware Approximate
03:19PM -19.2633 167.5197 204° Southwest  Level FlightAware Approximate
03:20PM -19.3696 167.4699 204° Southwest  Level FlightAware Approximate
03:21PM -19.4758 167.4201 204° Southwest  Level FlightAware Approximate
03:22PM -19.5821 167.3702 204° Southwest  Level FlightAware Approximate
03:23PM -19.6883 167.3203 204° Southwest  Level FlightAware Approximate
03:24PM -19.7945 167.2702 204° Southwest  Level FlightAware Approximate
03:25PM -19.9007 167.2201 204° Southwest  Level FlightAware Approximate
03:26PM -20.0069 167.1700 204° Southwest  Level FlightAware Approximate
03:27PM -20.1131 167.1198 204° Southwest  Level FlightAware Approximate
03:28PM -20.2193 167.0695 204° Southwest  Level FlightAware Approximate
03:29PM -20.3254 167.0191 204° Southwest  Level FlightAware Approximate
03:30PM -20.4316 166.9687 204° Southwest  Level FlightAware Approximate
03:31PM -20.5377 166.9182 204° Southwest  Level FlightAware Approximate
03:32PM -20.6438 166.8676 204° Southwest  Level FlightAware Approximate
03:32PM -20.5060 166.9240 204° Southwest 426 490 36,000  Level FlightAware
03:33PM -20.7499 166.8170 204° Southwest  Level FlightAware Approximate
03:33PM -20.5640 166.8970 204° Southwest 426 490 36,000  Level FlightAware
03:34PM -20.6290 166.8660 204° Southwest 425 489 36,000  Level FlightAware
03:34PM -20.7020 166.8320 204° Southwest 425 489 36,000  Level FlightAware
03:35PM -20.7600 166.8040 204° Southwest 425 489 36,000  Level FlightAware
03:35PM -20.8240 166.7740 204° Southwest 425 489 36,000  Level FlightAware
03:36PM -20.9380 166.7200 204° Southwest 425 489 36,000  Level FlightAware
03:37PM -21.0000 166.6910 204° Southwest 425 489 36,000  Level FlightAware
03:38PM -21.0610 166.6620 204° Southwest 426 490 36,000  Level FlightAware
03:39PM -21.1680 166.6110 204° Southwest 427 491 36,000  Level FlightAware
03:39PM -21.2360 166.5790 204° Southwest 427 491 36,000  Level FlightAware
03:40PM -21.3370 166.5310 204° Southwest 427 491 36,000  Level FlightAware
03:41PM -21.4180 166.4930 204° Southwest 427 491 36,000  Level FlightAware
03:41PM -21.4750 166.4650 205° Southwest 426 490 36,000  Level FlightAware
03:42PM -21.5980 166.4070 204° Southwest 425 489 36,000  Level FlightAware
03:43PM -21.6830 166.3660 204° Southwest 426 490 36,000  Level FlightAware
03:44PM -21.7570 166.3310 204° Southwest 426 490 36,000  Level FlightAware
03:45PM -21.8450 166.2890 204° Southwest 426 490 36,000  Level FlightAware
03:46PM -21.9380 166.2440 204° Southwest 426 490 36,000  Level FlightAware
03:46PM -22.0240 166.1920 209° Southwest 414 476 36,000  Level FlightAware
03:48PM -22.1180 166.0940 224° Southwest 410 472 36,000  Level FlightAware
03:48PM -22.1900 166.0190 224° Southwest 410 472 36,000  Level FlightAware
03:49PM -22.2390 165.9670 224° Southwest 410 472 36,000  Level FlightAware
03:50PM -22.3260 165.8760 224° Southwest 410 472 36,000  Level FlightAware
03:51PM -22.4080 165.7900 224° Southwest 411 473 36,000  Level FlightAware
03:52PM -22.4760 165.7180 224° Southwest 412 474 36,000  Level FlightAware
03:53PM -22.5490 165.6410 224° Southwest 412 474 36,000  Level FlightAware
03:53PM -22.5930 165.5940 225° Southwest 412 474 36,000  Level FlightAware
03:54PM -22.6700 165.5130 224° Southwest 413 475 36,000  Level FlightAware
03:55PM -22.7180 165.4620 224° Southwest 413 475 36,000  Level FlightAware
03:56PM -22.7960 165.3790 224° Southwest 412 474 36,000  Level FlightAware
03:57PM -22.8730 165.2970 224° Southwest 412 474 36,000  Level FlightAware
03:57PM -22.9160 165.2520 224° Southwest 413 475 36,000  Level FlightAware
03:58PM -22.9730 165.1900 225° Southwest 414 476 36,000  Level FlightAware
03:59PM -23.0570 165.1000 225° Southwest 415 478 36,000  Level FlightAware
04:00PM -23.1360 165.0160 224° Southwest 417 480 36,000  Level FlightAware
04:01PM -23.1790 164.9700 225° Southwest 417 480 36,000  Level FlightAware
04:01PM -23.2340 164.9120 224° Southwest 418 481 36,000  Level FlightAware
04:02PM -23.3040 164.8360 225° Southwest 419 482 36,000  Level FlightAware
04:03PM -23.3730 164.7630 224° Southwest 419 482 36,000  Level FlightAware
04:03PM -23.4020 164.7330 224° Southwest 419 482 36,000  Level FlightAware
04:04PM -23.4740 164.6570 224° Southwest 419 482 36,000  Level FlightAware
04:05PM -23.5020 164.6270 224° Southwest 419 482 36,000  Level FlightAware
04:06PM -23.5740 164.5520 224° Southwest 419 482 36,000  Level FlightAware
04:07PM -23.6450 164.4770 224° Southwest 419 482 36,000  Level FlightAware
04:08PM -23.7020 164.4170 224° Southwest 419 482 36,000  Level FlightAware
04:08PM -23.7580 164.3570 224° Southwest 419 482 36,000  Level FlightAware
04:09PM -23.7870 164.3270 223° Southwest 419 482 36,000  Level FlightAware
04:10PM -23.8440 164.2670 224° Southwest 419 482 36,000  Level FlightAware
04:10PM -23.9010 164.2070 224° Southwest 419 482 36,000  Level FlightAware
04:11PM -23.9410 164.1650 224° Southwest 419 482 36,000  Level FlightAware
04:12PM -24.0130 164.0880 224° Southwest 419 482 36,000  Level FlightAware
04:15PM -24.2125 163.8656 225° Southwest  Level FlightAware Approximate
04:16PM -24.2939 163.7746 226° Southwest  Level FlightAware Approximate
04:17PM -24.3752 163.6835 226° Southwest  Level FlightAware Approximate
04:18PM -24.4564 163.5922 226° Southwest  Level FlightAware Approximate
04:18PM -24.6237 163.3948 225° Southwest 36,000  Level Aus ATC (Calculated)
04:19PM -24.6814 163.3308 225° Southwest 36,000  Level Aus ATC (Calculated)
04:21PM -24.8184 163.1793 225° Southwest  Level FlightAware Approximate
04:22PM -24.8951 163.0942 225° Southwest  Level FlightAware Approximate
04:22PM -24.9648 163.0148 225° Southwest 36,000  Level Aus ATC (Calculated)
04:24PM -25.1094 162.8718 222° Southwest  Level FlightAware Approximate
04:24PM -25.1213 162.8395 225° Southwest 36,000  Level Aus ATC (Calculated)
04:25PM -25.0454 162.9256 46° Northeast  Level FlightAware Approximate
04:26PM -24.9695 163.0117 46° Northeast  Level FlightAware Approximate
04:27PM -25.0311 162.9426 225° Southwest  Level FlightAware Approximate
04:27PM -25.4190 162.5039 225° Southwest 36,000  Level Aus ATC (Calculated)
04:28PM -25.4951 162.4177 226° Southwest  Level FlightAware Approximate
04:29PM -25.5712 162.3314 226° Southwest  Level FlightAware Approximate
04:30PM -25.6472 162.2450 226° Southwest  Level FlightAware Approximate
04:31PM -25.7231 162.1585 226° Southwest  Level FlightAware Approximate
04:31PM -25.8671 161.9940 225° Southwest 36,000  Level Aus ATC (Calculated)
04:33PM -26.0023 161.8390 226° Southwest  Level FlightAware Approximate
04:34PM -26.0780 161.7520 226° Southwest  Level FlightAware Approximate
04:35PM -26.1537 161.6648 226° Southwest  Level FlightAware Approximate
04:36PM -26.2293 161.5776 226° Southwest  Level FlightAware Approximate
04:37PM -26.3048 161.4902 226° Southwest  Level FlightAware Approximate
04:38PM -26.3804 161.4027 226° Southwest  Level FlightAware Approximate
04:39PM -26.4558 161.3151 226° Southwest  Level FlightAware Approximate
04:40PM -26.5312 161.2274 226° Southwest  Level FlightAware Approximate
04:41PM -26.6066 161.1395 226° Southwest  Level FlightAware Approximate
04:42PM -26.6818 161.0515 226° Southwest  Level FlightAware Approximate
04:43PM -26.7571 160.9635 226° Southwest  Level FlightAware Approximate
04:44PM -26.8323 160.8753 226° Southwest  Level FlightAware Approximate
04:44PM -27.2542 160.3770 225° Southwest 36,000  Level Aus ATC (Calculated)
04:45PM -26.9074 160.7870 226° Southwest  Level FlightAware Approximate
04:46PM -27.3377 160.2776 227° Southwest  Level FlightAware Approximate
04:46PM -27.4425 160.1526 225° Southwest 36,000  Level Aus ATC (Calculated)
04:47PM -27.4125 160.1885 227° Southwest  Level FlightAware Approximate
04:48PM -27.5259 160.0529 227° Southwest  Level FlightAware Approximate
04:48PM -27.6461 159.9088 225° Southwest 36,000  Level Aus ATC (Calculated)
04:49PM -27.6005 159.9635 227° Southwest  Level FlightAware Approximate
04:50PM -27.7293 159.8087 227° Southwest  Level FlightAware Approximate
04:50PM -27.8366 159.6794 225° Southwest 36,000  Level Aus ATC (Calculated)
04:51PM -27.8037 159.7190 227° Southwest  Level FlightAware Approximate
04:52PM -27.9196 159.5789 227° Southwest  Level FlightAware Approximate
04:53PM -27.9939 159.4889 227° Southwest  Level FlightAware Approximate
04:54PM -28.0681 159.3987 227° Southwest  Level FlightAware Approximate
04:55PM -28.1423 159.3084 227° Southwest  Level FlightAware Approximate
04:55PM -28.3359 159.0718 224° Southwest 36,000  Level Aus ATC (Calculated)
04:56PM -28.4174 158.9716 224° Southwest 36,000  Level Aus ATC (Calculated)
04:57PM -28.2471 159.1806 47° Northeast  Level FlightAware Approximate
04:58PM -28.3188 159.0926 47° Northeast  Level FlightAware Approximate
04:59PM -28.2448 159.1833 47° Northeast  Level FlightAware Approximate
05:00PM -28.3189 159.0927 227° Southwest  Level FlightAware Approximate
05:01PM -28.2448 159.1833 47° Northeast  Level FlightAware Approximate
05:01PM -28.8242 158.4683 221° Southwest 36,000  Level Aus ATC (Calculated)
05:03PM -28.7107 158.6094 47° Northeast  Level FlightAware Approximate
05:03PM -29.0268 158.2153 215° Southwest 36,000  Level Aus ATC (Calculated)
05:04PM -28.6332 158.7053 47° Northeast  Level FlightAware Approximate
05:05PM -28.9458 158.3166 48° Northeast  Level FlightAware Approximate
05:06PM -28.8685 158.4131 48° Northeast  Level FlightAware Approximate
05:07PM -28.7912 158.5093 48° Northeast  Level FlightAware Approximate
05:08PM -28.7139 158.6054 47° Northeast  Level FlightAware Approximate
05:08PM -29.4709 157.6550 58° Northeast 36,000  Level Aus ATC (Calculated)
05:09PM -29.5112 157.6038 57° Northeast 36,000  Level Aus ATC (Calculated)
05:10PM -29.3839 157.7654 48° Northeast  Level FlightAware Approximate
05:11PM -29.6081 157.4742 227° Southwest  Level Estimated
05:12PM -29.6849 157.3765 228° Southwest  Level FlightAware Approximate
05:13PM -29.7615 157.2787 228° Southwest  Level FlightAware Approximate
05:14PM -29.8381 157.1808 228° Southwest  Level FlightAware Approximate
05:14PM -29.9527 157.0383 52° Northeast 36,000  Level Aus ATC (Calculated)
05:16PM -30.0530 156.9086 228° Southwest  Level FlightAware Approximate
05:16PM -29.2695 158.0227 228° Southwest 408 470 36,100  Level Aus ATC (RADAR)
05:16PM -29.3194 157.9704 222° Southwest 412 474 36,100  Level Aus ATC (RADAR)
05:17PM -29.4124 157.8730 222° Southwest 415 478 36,100  Level Aus ATC (RADAR)
05:18PM -29.4483 157.8360 222° Southwest 415 478 36,100  Level Aus ATC (RADAR)
05:18PM -29.4909 157.7913 222° Southwest 415 478 36,100  Level Aus ATC (RADAR)
05:19PM -29.5462 157.7321 223° Southwest 412 474 36,100  Level Aus ATC (RADAR)
05:20PM -29.5948 157.6804 223° Southwest 410 472 36,100  Level Aus ATC (RADAR)
05:20PM -29.6491 157.6214 223° Southwest 612 704 36,100  Level Aus ATC (RADAR)
05:21PM -29.7047 157.5621 223° Southwest 442 509 36,100  Level Aus ATC (RADAR)
05:21PM -29.7465 157.5177 223° Southwest 418 481 36,100  Level Aus ATC (RADAR)
05:22PM -29.8212 157.4367 223° Southwest 406 467 36,100  Level Aus ATC (RADAR)
05:23PM -29.8548 157.4004 223° Southwest 402 463 36,100  Level Aus ATC (RADAR)
05:23PM -29.8972 157.3553 223° Southwest 407 468 36,100  Level Aus ATC (RADAR)
05:24PM -29.9530 157.2960 223° Southwest 409 471 36,100  Level Aus ATC (RADAR)
05:25PM -30.0005 157.2446 223° Southwest 405 466 36,100 -120 Level Aus ATC (RADAR)
05:25PM -30.0414 157.2005 223° Southwest 403 464 36,000  Descending Aus ATC (RADAR)
05:26PM -30.1102 157.1263 223° Southwest 405 466 36,100  Climbing Aus ATC (RADAR)
05:26PM -30.1510 157.0821 223° Southwest 402 463 36,000  Descending Aus ATC (RADAR)
05:27PM -30.2267 157.0007 223° Southwest 405 466 36,100 60 Climbing Aus ATC (RADAR)
05:28PM -30.2608 156.9633 224° Southwest 405 466 36,100  Level Aus ATC (RADAR)
05:28PM -30.2950 156.9262 223° Southwest 405 466 36,100  Level Aus ATC (RADAR)
05:29PM -30.3365 156.8813 223° Southwest 407 468 36,100  Level Aus ATC (RADAR)
05:29PM -30.3918 156.8210 223° Southwest 409 471 36,100  Level Aus ATC (RADAR)
05:30PM -30.4264 156.7835 223° Southwest 409 471 36,100 -120 Level Aus ATC (RADAR)
05:30PM -30.4818 156.7231 223° Southwest 410 472 36,000  Descending Aus ATC (RADAR)
05:31PM -30.5442 156.6551 223° Southwest 411 473 36,100  Climbing Aus ATC (RADAR)
05:32PM -30.5856 156.6095 224° Southwest 410 472 36,000  Descending Aus ATC (RADAR)
05:32PM -30.6547 156.5340 223° Southwest 410 472 36,100  Climbing Aus ATC (RADAR)
05:33PM -30.6895 156.4961 223° Southwest 411 473 36,000 -120 Descending Aus ATC (RADAR)
05:33PM -30.7378 156.4428 223° Southwest 411 473 36,000  Level Aus ATC (RADAR)
05:34PM -30.8001 156.3742 223° Southwest 411 473 36,000  Level Aus ATC (RADAR)
05:35PM -30.8347 156.3360 223° Southwest 412 474 36,000  Level Aus ATC (RADAR)
05:35PM -30.8834 156.2823 223° Southwest 413 475 36,000  Level Aus ATC (RADAR)
05:36PM -30.9461 156.2133 223° Southwest 413 475 36,000  Level Aus ATC (RADAR)
05:36PM -30.9946 156.1595 224° Southwest 413 475 36,000  Level Aus ATC (RADAR)
05:38PM -31.0846 156.0598 223° Southwest 413 475 36,000  Level Aus ATC (RADAR)
05:38PM -31.1119 156.0293 224° Southwest 411 473 36,000  Level Aus ATC (RADAR)
05:38PM -31.1461 155.9913 224° Southwest 409 471 36,000  Level Aus ATC (RADAR)
05:39PM -31.1936 155.9383 224° Southwest 407 468 36,000  Level Aus ATC (RADAR)
05:40PM -31.2550 155.8698 224° Southwest 407 468 36,000  Level Aus ATC (RADAR)
05:40PM -31.2825 155.8395 223° Southwest 408 470 36,000  Level Aus ATC (RADAR)
05:41PM -31.3298 155.7864 224° Southwest 406 467 36,000  Level Aus ATC (RADAR)
05:41PM -31.3910 155.7178 224° Southwest 407 468 36,000  Level Aus ATC (RADAR)
05:42PM -31.4395 155.6635 224° Southwest 412 474 36,000  Level Aus ATC (RADAR)
05:43PM -31.5431 155.5468 224° Southwest 415 478 36,000  Level Aus ATC (RADAR)
05:44PM -31.5920 155.4917 224° Southwest 417 480 36,000  Level Aus ATC (RADAR)
05:44PM -31.6412 155.4365 224° Southwest 419 482 36,000  Level Aus ATC (RADAR)
05:45PM -31.7020 155.3680 224° Southwest 422 486 36,000  Level FlightAware
05:45PM -31.7183 155.3495 224° Southwest 419 482 36,000  Level Aus ATC (RADAR)
05:46PM -31.7677 155.2934 224° Southwest 423 487 36,000  Level Aus ATC (RADAR)
05:46PM -31.7680 155.2930 224° Southwest 423 487 36,000  Level FlightAware
05:46PM -31.8239 155.2296 224° Southwest 423 487 36,000  Level Aus ATC (RADAR)
05:47PM -31.8310 155.2210 224° Southwest 424 488 36,000  Level FlightAware
05:47PM -31.8592 155.1891 224° Southwest 425 489 36,000  Level Aus ATC (RADAR)
05:47PM -31.8820 155.1630 224° Southwest 424 488 36,000  Level FlightAware
05:48PM -31.9364 155.1013 224° Southwest 423 487 36,000  Level Aus ATC (RADAR)
05:48PM -31.9480 155.0880 224° Southwest 423 487 36,000  Level FlightAware
05:48PM -31.9646 155.0692 224° Southwest 424 488 36,000  Level Aus ATC (RADAR)
05:49PM -32.0136 155.0133 224° Southwest 422 486 36,000  Level Aus ATC (RADAR)
05:49PM -32.0180 155.0080 224° Southwest 422 486 36,000  Level FlightAware
05:49PM -32.0624 154.9574 224° Southwest 422 486 36,000  Level Aus ATC (RADAR)
05:50PM -32.0930 154.9230 224° Southwest 421 484 36,000  Level FlightAware
05:50PM -32.1181 154.8936 224° Southwest 420 483 36,000  Level Aus ATC (RADAR)
05:50PM -32.1520 154.8550 224° Southwest 420 483 36,000  Level FlightAware
05:51PM -32.1667 154.8377 224° Southwest 419 482 36,000  Level Aus ATC (RADAR)
05:51PM -32.2153 154.7819 224° Southwest 420 483 36,000  Level Aus ATC (RADAR)
05:51PM -32.2320 154.7620 224° Southwest 419 482 36,000  Level FlightAware
05:52PM -32.2990 154.6860 224° Southwest 420 483 36,000  Level FlightAware
05:52PM -32.3193 154.6624 224° Southwest 418 481 36,000  Level Aus ATC (RADAR)
05:53PM -32.3340 154.6450 225° Southwest 421 484 36,000  Level FlightAware
05:53PM -32.4030 154.5660 225° Southwest 421 484 36,000  Level FlightAware
05:54PM -32.4168 154.5496 225° Southwest 422 486 36,000  Level Aus ATC (RADAR)
05:54PM -32.4550 154.5050 225° Southwest 420 483 36,000  Level FlightAware
05:54PM -32.4930 154.4615 225° Southwest 418 481 36,000  Level Aus ATC (RADAR)
05:55PM -32.5090 154.4420 225° Southwest 418 481 36,000  Level FlightAware
05:55PM -32.5547 154.3895 225° Southwest 416 479 36,000  Level Aus ATC (RADAR)
05:55PM -32.5540 154.3900 225° Southwest 416 479 36,000  Level FlightAware
05:56PM -32.6024 154.3336 225° Southwest 414 476 36,000  Level Aus ATC (RADAR)
05:56PM -32.6330 154.2980 225° Southwest 414 476 36,000  Level FlightAware
05:56PM -32.6503 154.2777 225° Southwest 415 478 36,000  Level Aus ATC (RADAR)
05:57PM -32.6911 154.2305 225° Southwest 412 474 36,000  Level Aus ATC (RADAR)
05:57PM -32.6930 154.2280 225° Southwest 404 465 36,000  Level FlightAware
05:58PM -32.7620 154.1470 225° Southwest 398 458 36,000  Level FlightAware
05:58PM -32.8080 154.0940 224° Southwest 396 456 36,000 120 Level FlightAware
05:59PM -32.8219 154.0769 225° Southwest 397 457 36,100 180 Climbing Aus ATC (RADAR)
05:59PM -32.8544 154.0390 224° Southwest 395 455 36,100 -240 Level Aus ATC (RADAR)
05:59PM -32.8480 154.0460 225° Southwest 395 455 36,000  Descending FlightAware
06:00PM -32.8991 153.9864 225° Southwest 394 453 36,100  Climbing Aus ATC (RADAR)
06:00PM -32.9190 153.9620 225° Southwest 391 450 36,000 -120 Descending FlightAware
06:01PM -32.9770 153.8940 225° Southwest 387 445 36,000 60 Level FlightAware
06:01PM -33.0014 153.8657 225° Southwest 389 448 36,100  Climbing Aus ATC (RADAR)
06:01PM -33.0330 153.8280 225° Southwest 385 443 36,000  Descending FlightAware
06:01PM -33.0455 153.8139 225° Southwest 384 442 36,100 120 Climbing Aus ATC (RADAR)
06:02PM -33.0834 153.7687 225° Southwest 386 444 36,100 -180 Level Aus ATC (RADAR)
06:02PM -33.0940 153.7570 225° Southwest 388 447 36,000  Descending FlightAware
06:03PM -33.1283 153.7159 225° Southwest 389 448 36,100  Climbing Aus ATC (RADAR)
06:03PM -33.1370 153.7050 225° Southwest 389 448 36,000  Descending FlightAware
06:04PM -33.2049 153.6247 225° Southwest 391 450 36,100  Climbing Aus ATC (RADAR)
06:04PM -33.2080 153.6210 225° Southwest 391 450 36,000 -120 Descending FlightAware
06:04PM -33.2680 153.5490 225° Southwest 390 449 36,000 60 Level FlightAware
06:05PM -33.2878 153.5258 225° Southwest 390 449 36,100  Climbing Aus ATC (RADAR)
06:05PM -33.3250 153.4820 225° Southwest 393 452 36,000  Descending FlightAware
06:05PM -33.3454 153.4569 225° Southwest 392 451 36,100 120 Climbing Aus ATC (RADAR)
06:06PM -33.3894 153.4048 225° Southwest 383 441 36,100 -120 Level Aus ATC (RADAR)
06:06PM -33.4070 153.3830 225° Southwest 392 451 36,000 -120 Descending FlightAware
06:07PM -33.4680 153.3100 225° Southwest 394 453 36,000 60 Level FlightAware
06:07PM -33.4802 153.2958 225° Southwest 394 453 36,100 120 Climbing Aus ATC (RADAR)
06:08PM -33.5242 153.2429 225° Southwest 385 443 36,100 -180 Level Aus ATC (RADAR)
06:08PM -33.5300 153.2350 225° Southwest 396 456 36,000 -180 Descending FlightAware
06:08PM -33.5831 153.1724 225° Southwest 390 449 36,000 -300 Level Aus ATC (RADAR)
06:09PM -33.5830 153.1720 225° Southwest 379 436 35,800 -1,440 Descending FlightAware
06:09PM -33.6134 153.1358 225° Southwest 377 434 35,400 -1,500 Descending Aus ATC (RADAR)
06:09PM -33.6290 153.1170 225° Southwest 367 422 34,900 -1,740 Descending FlightAware
06:09PM -33.6540 153.0858 225° Southwest 363 418 34,400 -1,740 Descending Aus ATC (RADAR)
06:10PM -33.6910 153.0420 225° Southwest 359 413 33,400 -1,740 Descending FlightAware
06:10PM -33.7070 153.0221 225° Southwest 359 413 33,100 -1,800 Descending Aus ATC (RADAR)
06:11PM -33.7280 152.9970 225° Southwest 355 409 32,500 -2,100 Descending FlightAware
06:11PM -33.7478 152.9733 225° Southwest 357 411 31,900 -1,920 Descending Aus ATC (RADAR)
06:11PM -33.7874 152.9254 225° Southwest 351 404 31,000 -1,620 Descending Aus ATC (RADAR)
06:11PM -33.7870 152.9260 225° Southwest 351 404 30,900 -1,740 Descending FlightAware
06:12PM -33.8140 152.8930 225° Southwest 347 399 30,200 -1,560 Descending FlightAware
06:12PM -33.8610 152.8353 225° Southwest 348 400 29,300 -1,500 Descending Aus ATC (RADAR)
06:13PM -33.8780 152.8150 225° Southwest 346 398 28,800 -1,680 Descending FlightAware
06:14PM -33.9380 152.7410 225° Southwest 347 399 27,300 -1,740 Descending FlightAware
06:14PM -33.9455 152.7326 225° Southwest 347 399 27,200 -1,740 Descending Aus ATC (RADAR)
06:14PM -33.9910 152.6770 225° Southwest 344 396 26,000 -1,800 Descending FlightAware
06:15PM -34.0066 152.6573 225° Southwest 344 396 25,600 -1,680 Descending Aus ATC (RADAR)
06:15PM -34.0510 152.6036 225° Southwest 341 392 24,600 -1,680 Descending Aus ATC (RADAR)
06:15PM -34.0480 152.6080 230° Southwest 337 388 24,500 -1,800 Descending FlightAware
06:16PM -34.0710 152.5760 229° Southwest 322 371 23,900 -1,500 Descending FlightAware
06:16PM -34.0760 152.5681 230° Southwest 338 389 23,900 -1,500 Level Aus ATC (RADAR)
06:16PM -34.0790 152.5380 229° Southwest 290 334 23,300 -1,200 Descending FlightAware
06:16PM -34.0774 152.5111 229° Southwest 300 345 23,200 -900 Descending Aus ATC (RADAR)
06:17PM -34.0690 152.4324 229° Southwest 284 327 22,400 -1,020 Descending Aus ATC (RADAR)
06:17PM -34.0690 152.4300 275° West 293 337 22,300 -1,500 Descending FlightAware
06:17PM -34.0666 152.3988 275° West 288 331 21,900 -1,500 Descending Aus ATC (RADAR)
06:18PM -34.0630 152.3560 276° West 283 326 21,100 -1,500 Descending FlightAware
06:19PM -34.0552 152.2793 277° West 280 322 20,000 -1,380 Descending FlightAware ADS-B (YSSY / SYD)
06:19PM -34.0503 152.2281 277° West 279 321 19,300 -1,440 Descending Aus ATC (RADAR)
06:20PM -34.0449 152.1732 277° West 282 325 18,400 -1,680 Descending Aus ATC (RADAR)
06:20PM -34.0450 152.1770 277° West 281 323 18,300 -1,380 Descending FlightAware
06:20PM -34.0387 152.1121 277° West 274 315 17,500 -1,620 Descending Aus ATC (RADAR)
06:20PM -34.0390 152.1130 277° West 271 312 17,300 -1,560 Descending FlightAware
06:21PM -34.0341 152.0595 277° West 270 311 16,600 -1,440 Descending Aus ATC (RADAR)
06:22PM -34.0296 152.0153 277° West 274 315 15,800 -1,680 Descending FlightAware ADS-B (YSSY / SYD)
06:22PM -34.0238 151.9568 277° West 278 320 14,800 -1,680 Descending FlightAware ADS-B (YSSY / SYD)
06:23PM -34.0183 151.9035 277° West 282 325 13,800 -1,560 Descending FlightAware ADS-B
06:23PM -34.0130 151.8506 277° West 285 328 13,000 -1,380 Descending FlightAware ADS-B
06:24PM -34.0070 151.7928 277° West 286 329 12,200 -1,440 Descending FlightAware ADS-B
06:25PM -34.0016 151.7395 277° West 280 322 11,200 -1,560 Descending FlightAware ADS-B (YSSY / SYD)
06:25PM -33.9947 151.6708 277° West 277 319 10,200 -1,500 Descending FlightAware ADS-B
06:26PM -33.9913 151.6390 277° West 277 319 9,700 -1,440 Descending FlightAware ADS-B (YSSY / SYD)
06:26PM -33.9913 151.6390 277° West 276 318 9,000 -1,320 Descending FlightAware ADS-B (YSSY / SYD)
06:26PM -33.9837 151.5668 277° West 272 313 8,600 -900 Descending FlightAware ADS-B (YSSY / SYD)
06:27PM -33.9806 151.5364 277° West 270 311 8,400 -720 Descending FlightAware ADS-B (YSSY / SYD)
06:27PM -33.9783 151.5141 277° West 271 312 8,200 -720 Descending FlightAware ADS-B (YSSY / SYD)
06:27PM -33.9749 151.4828 277° West 272 313 8,000 -660 Descending FlightAware ADS-B (YSSY / SYD)
06:28PM -33.9723 151.4569 277° West 273 314 7,800 -600 Descending FlightAware ADS-B (YSSY / SYD)
06:28PM -33.9688 151.4216 277° West 279 321 7,600 -660 Descending FlightAware ADS-B (YSSY / SYD)
06:28PM -33.9679 151.4130 278° West 286 329 7,500 -840 Descending FlightAware ADS-B
06:29PM -33.9623 151.3767 281° West 285 328 7,200 -840 Descending FlightAware ADS-B (YSSY / SYD)
06:29PM -33.9507 151.3574 306° West 282 325 7,000 -600 Descending FlightAware ADS-B
06:29PM -33.9329 151.3455 331° Northwest 283 326 6,900 -360 Descending FlightAware ADS-B (YSSY / SYD)
06:29PM -33.9075 151.3349 341° North 293 337 6,800 -300 Descending FlightAware ADS-B (YSSY / SYD)
06:30PM -33.8822 151.3248 342° North 282 325 6,700 -480 Descending FlightAware ADS-B (YSSY / SYD)
06:30PM -33.8577 151.3156 343° North 266 306 6,500 -480 Descending FlightAware ADS-B (YSSY / SYD)
06:30PM -33.8358 151.3075 343° North 252 290 6,400 -720 Descending FlightAware ADS-B (YSSY / SYD)
06:31PM -33.8104 151.2971 341° North 258 297 6,000 -1,080 Descending FlightAware ADS-B (YSSY / SYD)
06:31PM -33.7743 151.2825 341° North 255 293 5,500 -960 Descending FlightAware ADS-B (YSSY / SYD)
06:32PM -33.7535 151.2702 334° Northwest 250 288 5,200 -960 Descending FlightAware ADS-B (YSSY / SYD)
06:32PM -33.7386 151.2560 322° Northwest 252 290 4,900 -1,080 Descending FlightAware ADS-B (YSSY / SYD)
06:32PM -33.7215 151.2396 321° Northwest 253 291 4,600 -900 Descending FlightAware ADS-B
06:33PM -33.7078 151.2128 302° West 240 276 4,300 -900 Descending FlightAware ADS-B (YSSY / SYD)
06:33PM -33.7082 151.1991 268° West 233 268 4,100 -720 Descending FlightAware ADS-B (YSSY / SYD)
06:33PM -33.7075 151.2068 83° East 237 273 4,100 -600 Level FlightAware ADS-B
06:33PM -33.7108 151.1872 258° West 225 259 4,000 -900 Descending FlightAware ADS-B (YSSY / SYD)
06:33PM -33.7159 151.1743 244° Southwest 214 246 3,900 -900 Descending FlightAware ADS-B (YSSY / SYD)
06:33PM -33.7222 151.1676 222° Southwest 203 234 3,700 -900 Descending FlightAware ADS-B (YSSY / SYD)
06:33PM -33.7300 151.1625 209° Southwest 199 229 3,600 -480 Descending FlightAware ADS-B (YSSY / SYD)
06:34PM -33.7354 151.1591 207° Southwest 188 216 3,500 -420 Descending FlightAware ADS-B
06:34PM -33.7567 151.1466 206° Southwest 183 211 3,400 -480 Descending FlightAware ADS-B (YSSY / SYD)
06:34PM -33.7641 151.1453 188° South 181 208 3,300 -360 Descending FlightAware ADS-B (YSSY / SYD)
06:34PM -33.7509 151.1498 16° North 183 211 3,300 -300 Level FlightAware ADS-B
06:34PM -33.7812 151.1459 186° South 169 194 3,200 -600 Descending FlightAware ADS-B (YSSY / SYD)
06:35PM -33.7960 151.1482 173° South 153 176 3,000 -840 Descending FlightAware ADS-B (YSSY / SYD)
06:35PM -33.8142 151.1530 168° South 151 174 2,600 -840 Descending FlightAware ADS-B (YSSY / SYD)
06:36PM -33.8275 151.1565 167° South 153 176 2,400 -780 Descending FlightAware ADS-B (YSSY / SYD)
06:36PM -33.8411 151.1602 168° South 146 168 2,100 -900 Descending FlightAware ADS-B (YSSY / SYD)
06:37PM -33.8638 151.1660 168° South 137 158 1,600 -780 Descending FlightAware ADS-B (YSSY / SYD)
06:37PM -33.8758 151.1691 168° South 133 153 1,400 -600 Descending FlightAware ADS-B (YSSY / SYD)
06:37PM -33.8832 151.1711 167° South 130 150 1,200 -780 Descending FlightAware ADS-B (YSSY / SYD)
06:38PM -33.8999 151.1754 168° South 133 153 900 -840 Descending FlightAware ADS-B (YSSY / SYD)
06:38PM -33.9098 151.1779 168° South 133 153 700 -720 Descending FlightAware ADS-B (YSSY / SYD)
06:38PM -33.9210 151.1809 168° South 131 151 500 -600 Descending FlightAware ADS-B (YSSY / SYD)
06:39PM -33.9400 151.1860 167° South 133 153 100 -600 Descending FlightAware
06:48PM -33.9340 151.1720 270° West -60 Descending FlightAware